sensor_id;sensor_type;location;lat;lon;timestamp;pressure;altitude;pressure_sealevel;temperature;humidity
3250;BME280;1637;42.020;23.992;2022-11-09T00:00:33;93405.31;;;9.97;95.60
3250;BME280;1637;42.020;23.992;2022-11-09T00:02:59;93406.84;;;10.02;94.40
3250;BME280;1637;42.020;23.992;2022-11-09T00:05:28;93404.16;;;10.09;93.78
3250;BME280;1637;42.020;23.992;2022-11-09T00:07:54;93399.19;;;10.00;94.37
3250;BME280;1637;42.020;23.992;2022-11-09T00:10:21;93399.13;;;9.50;96.25
3250;BME280;1637;42.020;23.992;2022-11-09T00:12:48;93400.66;;;9.51;98.34
3250;BME280;1637;42.020;23.992;2022-11-09T00:15:15;93395.22;;;9.26;100.00
3250;BME280;1637;42.020;23.992;2022-11-09T00:17:41;93397.41;;;9.00;100.00
3250;BME280;1637;42.020;23.992;2022-11-09T00:20:09;93389.44;;;9.07;100.00
3250;BME280;1637;42.020;23.992;2022-11-09T00:22:38;93390.22;;;9.18;100.00
3250;BME280;1637;42.020;23.992;2022-11-09T00:25:06;93399.47;;;9.42;99.27
3250;BME280;1637;42.020;23.992;2022-11-09T00:27:33;93394.06;;;9.20;100.00
3250;BME280;1637;42.020;23.992;2022-11-09T00:30:00;93393.34;;;9.41;99.61
3250;BME280;1637;42.020;23.992;2022-11-09T00:32:26;93392.94;;;9.25;100.00
3250;BME280;1637;42.020;23.992;2022-11-09T00:34:53;93383.81;;;9.33;100.00
3250;BME280;1637;42.020;23.992;2022-11-09T00:37:20;93391.50;;;9.52;96.49
3250;BME280;1637;42.020;23.992;2022-11-09T00:39:48;93386.91;;;9.63;94.45
3250;BME280;1637;42.020;23.992;2022-11-09T00:42:15;93383.88;;;9.65;91.98
3250;BME280;1637;42.020;23.992;2022-11-09T00:44:42;93390.75;;;9.55;90.17
3250;BME280;1637;42.020;23.992;2022-11-09T00:47:08;93389.59;;;9.63;91.47
3250;BME280;1637;42.020;23.992;2022-11-09T00:49:35;93384.22;;;9.46;92.10
3250;BME280;1637;42.020;23.992;2022-11-09T00:52:02;93387.97;;;9.27;91.23
3250;BME280;1637;42.020;23.992;2022-11-09T00:54:29;93381.84;;;9.12;91.40
3250;BME280;1637;42.020;23.992;2022-11-09T00:56:57;93386.34;;;9.01;92.14
3250;BME280;1637;42.020;23.992;2022-11-09T00:59:24;93382.19;;;9.07;91.78
3250;BME280;1637;42.020;23.992;2022-11-09T01:01:51;93377.19;;;8.99;92.04
3250;BME280;1637;42.020;23.992;2022-11-09T01:04:18;93383.72;;;9.08;91.80
3250;BME280;1637;42.020;23.992;2022-11-09T01:06:45;93379.56;;;9.25;92.77
3250;BME280;1637;42.020;23.992;2022-11-09T01:09:12;93381.88;;;9.26;91.73
3250;BME280;1637;42.020;23.992;2022-11-09T01:11:38;93382.19;;;9.07;91.98
3250;BME280;1637;42.020;23.992;2022-11-09T01:14:08;93379.09;;;9.02;91.85
3250;BME280;1637;42.020;23.992;2022-11-09T01:16:35;93385.19;;;8.95;92.75
3250;BME280;1637;42.020;23.992;2022-11-09T01:19:02;93383.66;;;8.90;92.78
3250;BME280;1637;42.020;23.992;2022-11-09T01:21:29;93374.47;;;8.88;93.82
3250;BME280;1637;42.020;23.992;2022-11-09T01:23:56;93378.28;;;8.83;94.36
3250;BME280;1637;42.020;23.992;2022-11-09T01:26:24;93380.53;;;8.81;94.06
3250;BME280;1637;42.020;23.992;2022-11-09T01:28:50;93376.75;;;8.86;94.94
3250;BME280;1637;42.020;23.992;2022-11-09T01:31:20;93373.38;;;9.00;94.71
3250;BME280;1637;42.020;23.992;2022-11-09T01:33:47;93376.13;;;9.24;91.69
3250;BME280;1637;42.020;23.992;2022-11-09T01:36:17;93372.75;;;9.35;90.97
3250;BME280;1637;42.020;23.992;2022-11-09T01:38:44;93376.16;;;9.39;90.89
3250;BME280;1637;42.020;23.992;2022-11-09T01:41:16;93368.53;;;9.37;90.25
3250;BME280;1637;42.020;23.992;2022-11-09T01:43:43;93356.25;;;9.15;89.42
3250;BME280;1637;42.020;23.992;2022-11-09T01:46:15;93370.75;;;9.10;91.11
3250;BME280;1637;42.020;23.992;2022-11-09T01:48:48;93370.78;;;9.14;92.64
3250;BME280;1637;42.020;23.992;2022-11-09T01:51:20;93367.69;;;9.08;90.21
3250;BME280;1637;42.020;23.992;2022-11-09T01:53:52;93366.53;;;9.06;91.60
3250;BME280;1637;42.020;23.992;2022-11-09T01:56:19;93365.44;;;9.21;91.06
3250;BME280;1637;42.020;23.992;2022-11-09T01:58:50;93368.50;;;9.26;92.28
3250;BME280;1637;42.020;23.992;2022-11-09T02:01:18;93365.13;;;9.47;90.89
3250;BME280;1637;42.020;23.992;2022-11-09T02:03:50;93351.22;;;8.99;88.86
3250;BME280;1637;42.020;23.992;2022-11-09T02:06:19;93379.16;;;9.16;89.43
3250;BME280;1637;42.020;23.992;2022-11-09T02:08:48;93361.47;;;8.79;90.17
3250;BME280;1637;42.020;23.992;2022-11-09T02:11:19;93378.34;;;9.01;89.64
3250;BME280;1637;42.020;23.992;2022-11-09T02:13:51;93377.13;;;8.84;90.78
3250;BME280;1637;42.020;23.992;2022-11-09T02:16:20;93372.97;;;8.98;90.22
3250;BME280;1637;42.020;23.992;2022-11-09T02:18:51;93375.59;;;8.80;89.99
3250;BME280;1637;42.020;23.992;2022-11-09T02:21:20;93375.66;;;8.98;89.80
3250;BME280;1637;42.020;23.992;2022-11-09T02:23:48;93378.38;;;9.05;88.49
3250;BME280;1637;42.020;23.992;2022-11-09T02:26:18;93376.09;;;9.07;89.56
3250;BME280;1637;42.020;23.992;2022-11-09T02:28:47;93378.72;;;9.00;89.86
3250;BME280;1637;42.020;23.992;2022-11-09T02:31:14;93383.28;;;8.95;89.34
3250;BME280;1637;42.020;23.992;2022-11-09T02:33:47;93379.84;;;8.91;89.04
3250;BME280;1637;42.020;23.992;2022-11-09T02:36:18;93385.19;;;8.95;89.24
3250;BME280;1637;42.020;23.992;2022-11-09T02:38:46;93379.84;;;8.95;89.54
3250;BME280;1637;42.020;23.992;2022-11-09T02:41:13;93385.16;;;8.84;90.02
3250;BME280;1637;42.020;23.992;2022-11-09T02:43:40;93378.97;;;8.73;90.56
3250;BME280;1637;42.020;23.992;2022-11-09T02:46:07;93376.72;;;8.79;90.84
3250;BME280;1637;42.020;23.992;2022-11-09T02:48:33;93380.97;;;8.90;90.11
3250;BME280;1637;42.020;23.992;2022-11-09T02:51:00;93387.13;;;9.02;90.10
3250;BME280;1637;42.020;23.992;2022-11-09T02:53:27;93382.97;;;9.15;88.98
3250;BME280;1637;42.020;23.992;2022-11-09T02:55:55;93386.38;;;9.05;89.44
3250;BME280;1637;42.020;23.992;2022-11-09T02:58:22;93384.44;;;9.02;89.42
3250;BME280;1637;42.020;23.992;2022-11-09T03:00:49;93389.03;;;9.01;89.94
3250;BME280;1637;42.020;23.992;2022-11-09T03:03:16;93384.09;;;9.07;89.07
3250;BME280;1637;42.020;23.992;2022-11-09T03:05:42;93380.22;;;8.97;89.17
3250;BME280;1637;42.020;23.992;2022-11-09T03:08:09;93387.16;;;9.05;88.60
3250;BME280;1637;42.020;23.992;2022-11-09T03:10:36;93395.94;;;9.09;89.00
3250;BME280;1637;42.020;23.992;2022-11-09T03:13:04;93397.47;;;9.07;89.42
3250;BME280;1637;42.020;23.992;2022-11-09T03:15:31;93399.38;;;9.06;90.40
3250;BME280;1637;42.020;23.992;2022-11-09T03:17:58;93389.41;;;9.00;89.96
3250;BME280;1637;42.020;23.992;2022-11-09T03:20:24;93385.63;;;9.04;90.32
3250;BME280;1637;42.020;23.992;2022-11-09T03:22:56;93385.97;;;9.03;88.92
3250;BME280;1637;42.020;23.992;2022-11-09T03:25:22;93387.19;;;9.12;88.20
3250;BME280;1637;42.020;23.992;2022-11-09T03:27:49;93391.44;;;9.31;86.88
3250;BME280;1637;42.020;23.992;2022-11-09T03:30:18;93391.78;;;9.22;87.35
3250;BME280;1637;42.020;23.992;2022-11-09T03:32:44;93396.72;;;9.10;88.64
3250;BME280;1637;42.020;23.992;2022-11-09T03:35:11;93396.72;;;9.20;88.39
3250;BME280;1637;42.020;23.992;2022-11-09T03:37:38;93392.06;;;9.00;89.25
3250;BME280;1637;42.020;23.992;2022-11-09T03:40:06;93388.25;;;8.97;90.73
3250;BME280;1637;42.020;23.992;2022-11-09T03:42:32;93399.81;;;9.26;88.99
3250;BME280;1637;42.020;23.992;2022-11-09T03:44:59;93405.53;;;9.21;91.22
3250;BME280;1637;42.020;23.992;2022-11-09T03:47:27;93411.63;;;9.21;89.24
3250;BME280;1637;42.020;23.992;2022-11-09T03:49:54;93403.66;;;9.28;88.44
3250;BME280;1637;42.020;23.992;2022-11-09T03:52:21;93402.44;;;9.15;88.74
3250;BME280;1637;42.020;23.992;2022-11-09T03:54:48;93394.41;;;9.05;87.99
3250;BME280;1637;42.020;23.992;2022-11-09T03:57:14;93402.81;;;9.17;88.33
3250;BME280;1637;42.020;23.992;2022-11-09T03:59:41;93396.41;;;9.29;87.51
3250;BME280;1637;42.020;23.992;2022-11-09T04:02:08;93404.00;;;9.20;88.17
3250;BME280;1637;42.020;23.992;2022-11-09T04:04:36;93404.41;;;9.29;88.46
3250;BME280;1637;42.020;23.992;2022-11-09T04:07:03;93405.59;;;9.35;87.98
3250;BME280;1637;42.020;23.992;2022-11-09T04:09:30;93405.94;;;9.37;88.03
3250;BME280;1637;42.020;23.992;2022-11-09T04:11:56;93406.69;;;9.27;87.44
3250;BME280;1637;42.020;23.992;2022-11-09T04:14:23;93411.28;;;9.30;87.65
3250;BME280;1637;42.020;23.992;2022-11-09T04:16:50;93409.00;;;9.36;87.37
3250;BME280;1637;42.020;23.992;2022-11-09T04:19:17;93402.16;;;9.35;86.68
3250;BME280;1637;42.020;23.992;2022-11-09T04:21:45;93406.69;;;9.23;87.29
3250;BME280;1637;42.020;23.992;2022-11-09T04:24:12;93406.72;;;9.30;86.87
3250;BME280;1637;42.020;23.992;2022-11-09T04:26:38;93409.41;;;9.41;86.38
3250;BME280;1637;42.020;23.992;2022-11-09T04:29:05;93403.72;;;9.57;85.99
3250;BME280;1637;42.020;23.992;2022-11-09T04:31:32;93402.59;;;9.54;85.84
3250;BME280;1637;42.020;23.992;2022-11-09T04:33:59;93410.59;;;9.61;86.34
3250;BME280;1637;42.020;23.992;2022-11-09T04:36:26;93400.66;;;9.55;86.02
3250;BME280;1637;42.020;23.992;2022-11-09T04:38:54;93404.50;;;9.64;86.46
3250;BME280;1637;42.020;23.992;2022-11-09T04:41:21;93371.53;;;9.21;87.47
3250;BME280;1637;42.020;23.992;2022-11-09T04:43:48;93398.75;;;9.62;86.13
3250;BME280;1637;42.020;23.992;2022-11-09T04:46:14;93405.25;;;9.51;86.28
3250;BME280;1637;42.020;23.992;2022-11-09T04:48:41;93406.81;;;9.80;86.36
3250;BME280;1637;42.020;23.992;2022-11-09T04:51:09;93409.09;;;9.68;87.08
3250;BME280;1637;42.020;23.992;2022-11-09T04:53:37;93401.47;;;9.70;88.91
3250;BME280;1637;42.020;23.992;2022-11-09T04:56:06;93404.88;;;9.63;87.74
3250;BME280;1637;42.020;23.992;2022-11-09T04:58:33;93414.41;;;9.57;87.01
3250;BME280;1637;42.020;23.992;2022-11-09T05:01:05;93427.41;;;9.62;87.71
3250;BME280;1637;42.020;23.992;2022-11-09T05:03:32;93414.47;;;9.75;88.05
3250;BME280;1637;42.020;23.992;2022-11-09T05:05:59;93413.72;;;9.92;87.16
3250;BME280;1637;42.020;23.992;2022-11-09T05:08:26;93412.94;;;9.98;86.73
3250;BME280;1637;42.020;23.992;2022-11-09T05:10:55;93419.81;;;9.71;88.88
3250;BME280;1637;42.020;23.992;2022-11-09T05:13:23;93422.38;;;9.36;92.55
3250;BME280;1637;42.020;23.992;2022-11-09T05:15:50;93422.91;;;10.48;98.48
3250;BME280;1637;42.020;23.992;2022-11-09T05:18:17;93429.97;;;11.36;93.44
3250;BME280;1637;42.020;23.992;2022-11-09T05:20:44;93433.56;;;11.92;88.98
3250;BME280;1637;42.020;23.992;2022-11-09T05:23:11;93436.47;;;12.15;80.03
3250;BME280;1637;42.020;23.992;2022-11-09T05:26:00;93435.56;;;11.77;79.34
3250;BME280;1637;42.020;23.992;2022-11-09T05:28:29;93437.03;;;10.84;82.45
3250;BME280;1637;42.020;23.992;2022-11-09T05:30:55;93435.56;;;10.33;85.36
3250;BME280;1637;42.020;23.992;2022-11-09T05:33:22;93430.94;;;10.19;86.56
3250;BME280;1637;42.020;23.992;2022-11-09T05:35:49;93442.81;;;10.25;85.67
3250;BME280;1637;42.020;23.992;2022-11-09T05:38:16;93425.22;;;10.31;83.34
3250;BME280;1637;42.020;23.992;2022-11-09T05:40:42;93433.19;;;9.99;85.26
3250;BME280;1637;42.020;23.992;2022-11-09T05:43:09;93431.34;;;10.32;84.79
3250;BME280;1637;42.020;23.992;2022-11-09T05:45:37;93437.09;;;10.34;84.92
3250;BME280;1637;42.020;23.992;2022-11-09T05:48:05;93435.94;;;10.46;84.35
3250;BME280;1637;42.020;23.992;2022-11-09T05:50:32;93442.81;;;10.29;85.80
3250;BME280;1637;42.020;23.992;2022-11-09T05:52:59;93436.28;;;10.12;86.69
3250;BME280;1637;42.020;23.992;2022-11-09T05:55:26;93440.88;;;9.94;87.66
3250;BME280;1637;42.020;23.992;2022-11-09T05:57:53;93446.25;;;10.15;87.27
3250;BME280;1637;42.020;23.992;2022-11-09T06:00:21;93448.56;;;10.27;85.01
3250;BME280;1637;42.020;23.992;2022-11-09T06:02:49;93442.03;;;10.21;84.63
3250;BME280;1637;42.020;23.992;2022-11-09T06:05:16;93452.75;;;10.18;85.85
3250;BME280;1637;42.020;23.992;2022-11-09T06:07:44;93460.41;;;10.23;84.92
3250;BME280;1637;42.020;23.992;2022-11-09T06:10:11;93461.19;;;10.27;85.57
3250;BME280;1637;42.020;23.992;2022-11-09T06:12:38;93460.41;;;10.48;84.94
3250;BME280;1637;42.020;23.992;2022-11-09T06:15:05;93466.56;;;10.59;83.55
3250;BME280;1637;42.020;23.992;2022-11-09T06:17:32;93463.88;;;10.30;85.49
3250;BME280;1637;42.020;23.992;2022-11-09T06:20:00;93472.66;;;10.59;83.45
3250;BME280;1637;42.020;23.992;2022-11-09T06:22:28;93468.09;;;10.39;83.18
3250;BME280;1637;42.020;23.992;2022-11-09T06:24:55;93474.56;;;10.30;83.24
3250;BME280;1637;42.020;23.992;2022-11-09T06:27:22;93468.38;;;10.05;83.69
3250;BME280;1637;42.020;23.992;2022-11-09T06:29:49;93475.66;;;9.94;84.79
3250;BME280;1637;42.020;23.992;2022-11-09T06:32:15;93472.22;;;10.04;84.08
3250;BME280;1637;42.020;23.992;2022-11-09T06:34:42;93471.84;;;10.09;84.60
3250;BME280;1637;42.020;23.992;2022-11-09T06:37:14;93467.25;;;10.10;83.82
3250;BME280;1637;42.020;23.992;2022-11-09T06:39:42;93468.41;;;10.09;84.36
3250;BME280;1637;42.020;23.992;2022-11-09T06:42:09;93469.53;;;10.04;83.75
3250;BME280;1637;42.020;23.992;2022-11-09T06:44:36;93470.31;;;9.94;84.49
3250;BME280;1637;42.020;23.992;2022-11-09T06:47:03;93465.72;;;10.02;83.88
3250;BME280;1637;42.020;23.992;2022-11-09T06:49:30;93464.59;;;10.13;84.78
3250;BME280;1637;42.020;23.992;2022-11-09T06:51:57;93468.84;;;10.32;83.24
3250;BME280;1637;42.020;23.992;2022-11-09T06:54:25;93472.25;;;10.89;80.49
3250;BME280;1637;42.020;23.992;2022-11-09T06:56:52;93477.44;;;11.46;77.70
3250;BME280;1637;42.020;23.992;2022-11-09T06:59:19;93472.06;;;11.46;77.94
3250;BME280;1637;42.020;23.992;2022-11-09T07:01:46;93473.59;;;11.54;77.74
3250;BME280;1637;42.020;23.992;2022-11-09T07:04:13;93478.41;;;11.95;76.09
3250;BME280;1637;42.020;23.992;2022-11-09T07:06:41;93466.69;;;12.26;73.73
3250;BME280;1637;42.020;23.992;2022-11-09T07:09:08;93478.34;;;12.05;74.27
3250;BME280;1637;42.020;23.992;2022-11-09T07:11:37;93474.50;;;13.44;70.76
3250;BME280;1637;42.020;23.992;2022-11-09T07:14:04;93479.25;;;14.24;67.63
3250;BME280;1637;42.020;23.992;2022-11-09T07:16:31;93469.91;;;14.83;65.58
3250;BME280;1637;42.020;23.992;2022-11-09T07:18:58;93476.09;;;16.05;61.80
3250;BME280;1637;42.020;23.992;2022-11-09T07:21:25;93485.09;;;16.87;60.01
3250;BME280;1637;42.020;23.992;2022-11-09T07:23:52;93486.97;;;16.90;60.01
3250;BME280;1637;42.020;23.992;2022-11-09T07:26:18;93484.25;;;16.90;60.09
3250;BME280;1637;42.020;23.992;2022-11-09T07:28:46;93474.56;;;15.25;63.42
3250;BME280;1637;42.020;23.992;2022-11-09T07:31:13;93477.75;;;17.04;59.55
3250;BME280;1637;42.020;23.992;2022-11-09T07:33:40;93473.28;;;16.29;61.35
3250;BME280;1637;42.020;23.992;2022-11-09T07:36:08;93477.31;;;16.57;61.26
3250;BME280;1637;42.020;23.992;2022-11-09T07:38:35;93478.47;;;16.39;60.88
3250;BME280;1637;42.020;23.992;2022-11-09T07:41:01;93476.16;;;16.74;61.11
3250;BME280;1637;42.020;23.992;2022-11-09T07:43:29;93475.78;;;17.21;59.80
3250;BME280;1637;42.020;23.992;2022-11-09T07:45:57;93481.53;;;18.22;57.15
3250;BME280;1637;42.020;23.992;2022-11-09T07:48:24;93486.91;;;19.23;54.82
3250;BME280;1637;42.020;23.992;2022-11-09T07:50:51;93459.88;;;19.20;54.47
3250;BME280;1637;42.020;23.992;2022-11-09T07:53:17;93483.03;;;19.12;54.29
3250;BME280;1637;42.020;23.992;2022-11-09T07:55:45;93480.75;;;19.79;52.69
3250;BME280;1637;42.020;23.992;2022-11-09T07:58:14;93483.13;;;20.21;51.98
3250;BME280;1637;42.020;23.992;2022-11-09T08:00:41;93492.91;;;20.09;51.71
3250;BME280;1637;42.020;23.992;2022-11-09T08:03:10;93484.94;;;19.93;52.17
3250;BME280;1637;42.020;23.992;2022-11-09T08:05:37;93482.94;;;20.68;51.24
3250;BME280;1637;42.020;23.992;2022-11-09T08:08:06;93476.34;;;20.47;50.61
3250;BME280;1637;42.020;23.992;2022-11-09T08:10:34;93482.78;;;21.21;48.96
3250;BME280;1637;42.020;23.992;2022-11-09T08:13:03;93481.31;;;21.38;49.50
3250;BME280;1637;42.020;23.992;2022-11-09T08:15:32;93446.13;;;19.71;51.47
3250;BME280;1637;42.020;23.992;2022-11-09T08:18:00;93472.28;;;19.43;53.28
3250;BME280;1637;42.020;23.992;2022-11-09T08:20:29;93473.09;;;19.65;52.21
3250;BME280;1637;42.020;23.992;2022-11-09T08:22:56;93468.22;;;19.26;53.81
3250;BME280;1637;42.020;23.992;2022-11-09T08:25:23;93470.41;;;20.18;52.22
3250;BME280;1637;42.020;23.992;2022-11-09T08:27:50;93471.47;;;19.68;53.90
3250;BME280;1637;42.020;23.992;2022-11-09T08:30:18;93468.88;;;19.30;54.01
3250;BME280;1637;42.020;23.992;2022-11-09T08:32:46;93463.78;;;17.92;57.74
3250;BME280;1637;42.020;23.992;2022-11-09T08:35:15;93468.59;;;19.02;55.67
3250;BME280;1637;42.020;23.992;2022-11-09T08:37:44;93472.84;;;20.47;51.83
3250;BME280;1637;42.020;23.992;2022-11-09T08:40:13;93474.50;;;20.44;51.47
3250;BME280;1637;42.020;23.992;2022-11-09T08:42:40;93459.00;;;20.54;51.00
3250;BME280;1637;42.020;23.992;2022-11-09T08:45:09;93451.41;;;20.58;50.56
3250;BME280;1637;42.020;23.992;2022-11-09T08:47:36;93458.06;;;20.26;51.26
3250;BME280;1637;42.020;23.992;2022-11-09T08:50:04;93469.50;;;20.83;50.36
3250;BME280;1637;42.020;23.992;2022-11-09T08:52:32;93456.16;;;20.36;50.69
3250;BME280;1637;42.020;23.992;2022-11-09T08:55:00;93459.38;;;20.74;52.12
3250;BME280;1637;42.020;23.992;2022-11-09T08:57:27;93460.91;;;20.44;51.77
3250;BME280;1637;42.020;23.992;2022-11-09T08:59:54;93457.75;;;20.24;51.77
3250;BME280;1637;42.020;23.992;2022-11-09T09:02:21;93448.66;;;18.07;56.18
3250;BME280;1637;42.020;23.992;2022-11-09T09:04:48;93448.88;;;18.51;56.88
3250;BME280;1637;42.020;23.992;2022-11-09T09:07:15;93445.63;;;18.18;57.39
3250;BME280;1637;42.020;23.992;2022-11-09T09:09:42;93446.66;;;19.44;53.86
3250;BME280;1637;42.020;23.992;2022-11-09T09:12:10;93444.16;;;19.71;52.92
3250;BME280;1637;42.020;23.992;2022-11-09T09:14:37;93434.69;;;18.47;56.52
3250;BME280;1637;42.020;23.992;2022-11-09T09:17:04;93426.44;;;19.45;53.94
3250;BME280;1637;42.020;23.992;2022-11-09T09:19:31;93438.22;;;19.64;53.12
3250;BME280;1637;42.020;23.992;2022-11-09T09:21:57;93433.84;;;19.88;52.96
3250;BME280;1637;42.020;23.992;2022-11-09T09:24:24;93435.16;;;20.36;51.43
3250;BME280;1637;42.020;23.992;2022-11-09T09:26:52;93421.34;;;17.02;58.50
3250;BME280;1637;42.020;23.992;2022-11-09T09:29:20;93417.56;;;19.10;54.77
3250;BME280;1637;42.020;23.992;2022-11-09T09:31:47;93420.91;;;20.01;52.27
3250;BME280;1637;42.020;23.992;2022-11-09T09:34:14;93418.63;;;20.52;52.46
3250;BME280;1637;42.020;23.992;2022-11-09T09:36:41;93420.66;;;20.39;51.51
3250;BME280;1637;42.020;23.992;2022-11-09T09:39:07;93412.94;;;20.07;52.12
3250;BME280;1637;42.020;23.992;2022-11-09T09:41:38;93411.53;;;20.64;50.72
3250;BME280;1637;42.020;23.992;2022-11-09T09:44:16;93409.41;;;19.66;52.61
3250;BME280;1637;42.020;23.992;2022-11-09T09:46:51;93405.81;;;20.31;51.40
3250;BME280;1637;42.020;23.992;2022-11-09T09:49:24;93404.69;;;20.50;50.82
3250;BME280;1637;42.020;23.992;2022-11-09T09:51:56;93399.56;;;20.62;50.86
3250;BME280;1637;42.020;23.992;2022-11-09T09:54:27;93388.03;;;18.14;56.00
3250;BME280;1637;42.020;23.992;2022-11-09T09:56:58;93394.59;;;19.67;53.02
3250;BME280;1637;42.020;23.992;2022-11-09T09:59:32;93391.94;;;19.76;53.52
3250;BME280;1637;42.020;23.992;2022-11-09T10:02:01;93396.56;;;20.29;51.61
3250;BME280;1637;42.020;23.992;2022-11-09T10:04:34;93381.66;;;20.02;51.71
3250;BME280;1637;42.020;23.992;2022-11-09T10:07:13;93389.03;;;19.93;52.48
3250;BME280;1637;42.020;23.992;2022-11-09T10:09:52;93386.75;;;19.26;53.67
3250;BME280;1637;42.020;23.992;2022-11-09T10:12:32;93384.97;;;20.37;51.04
3250;BME280;1637;42.020;23.992;2022-11-09T10:15:13;93378.16;;;20.33;53.19
3250;BME280;1637;42.020;23.992;2022-11-09T10:17:51;93386.56;;;19.85;52.02
3250;BME280;1637;42.020;23.992;2022-11-09T10:20:30;93368.38;;;18.35;55.76
3250;BME280;1637;42.020;23.992;2022-11-09T10:23:21;93367.19;;;18.62;55.71
3250;BME280;1637;42.020;23.992;2022-11-09T10:25:54;93361.53;;;19.03;54.53
3250;BME280;1637;42.020;23.992;2022-11-09T10:28:28;93370.00;;;19.49;53.15
3250;BME280;1637;42.020;23.992;2022-11-09T10:30:55;93361.22;;;19.45;53.29
3250;BME280;1637;42.020;23.992;2022-11-09T10:33:26;93357.31;;;19.46;52.72
3250;BME280;1637;42.020;23.992;2022-11-09T10:35:59;93355.16;;;19.41;52.44
3250;BME280;1637;42.020;23.992;2022-11-09T10:38:28;93357.63;;;19.48;53.63
3250;BME280;1637;42.020;23.992;2022-11-09T10:40:59;93353.38;;;19.90;51.70
3250;BME280;1637;42.020;23.992;2022-11-09T10:43:26;93345.38;;;19.43;52.33
3250;BME280;1637;42.020;23.992;2022-11-09T10:45:58;93338.09;;;19.18;52.38
3250;BME280;1637;42.020;23.992;2022-11-09T10:48:32;93334.63;;;18.62;53.98
3250;BME280;1637;42.020;23.992;2022-11-09T10:50:59;93334.69;;;19.05;52.91
3250;BME280;1637;42.020;23.992;2022-11-09T10:53:27;93333.00;;;19.20;52.50
3250;BME280;1637;42.020;23.992;2022-11-09T10:55:56;93319.28;;;19.02;53.63
3250;BME280;1637;42.020;23.992;2022-11-09T10:58:30;93320.63;;;18.50;53.47
3250;BME280;1637;42.020;23.992;2022-11-09T11:01:01;93314.34;;;18.88;51.95
3250;BME280;1637;42.020;23.992;2022-11-09T11:03:29;93318.75;;;18.95;52.25
3250;BME280;1637;42.020;23.992;2022-11-09T11:06:00;93317.28;;;18.59;52.55
3250;BME280;1637;42.020;23.992;2022-11-09T11:08:31;93314.06;;;18.73;52.56
3250;BME280;1637;42.020;23.992;2022-11-09T11:11:17;93311.97;;;18.90;52.40
3250;BME280;1637;42.020;23.992;2022-11-09T11:13:44;93314.22;;;19.57;52.14
3250;BME280;1637;42.020;23.992;2022-11-09T11:16:27;93300.91;;;19.28;50.32
3250;BME280;1637;42.020;23.992;2022-11-09T11:18:54;93305.38;;;19.00;50.26
3250;BME280;1637;42.020;23.992;2022-11-09T11:21:25;93300.84;;;19.19;50.34
3250;BME280;1637;42.020;23.992;2022-11-09T11:24:08;93293.25;;;19.14;51.11
3250;BME280;1637;42.020;23.992;2022-11-09T11:26:41;93290.97;;;19.34;51.28
3250;BME280;1637;42.020;23.992;2022-11-09T11:31:57;93286.16;;;18.73;50.66
3250;BME280;1637;42.020;23.992;2022-11-09T11:34:24;93278.88;;;18.82;51.11
3250;BME280;1637;42.020;23.992;2022-11-09T11:37:02;93284.19;;;19.08;51.41
3250;BME280;1637;42.020;23.992;2022-11-09T11:39:41;93278.91;;;19.35;49.91
3250;BME280;1637;42.020;23.992;2022-11-09T11:42:32;93281.28;;;19.55;50.89
3250;BME280;1637;42.020;23.992;2022-11-09T11:45:13;93283.00;;;19.62;50.95
3250;BME280;1637;42.020;23.992;2022-11-09T11:47:48;93274.41;;;19.63;51.40
3250;BME280;1637;42.020;23.992;2022-11-09T11:50:27;93269.84;;;19.29;50.93
3250;BME280;1637;42.020;23.992;2022-11-09T11:53:08;93266.56;;;18.69;51.80
3250;BME280;1637;42.020;23.992;2022-11-09T11:55:49;93262.50;;;18.73;52.07
3250;BME280;1637;42.020;23.992;2022-11-09T11:58:26;93265.78;;;18.34;53.11
3250;BME280;1637;42.020;23.992;2022-11-09T12:00:58;93258.50;;;18.31;52.96
3250;BME280;1637;42.020;23.992;2022-11-09T12:03:50;93259.41;;;18.15;53.75
3250;BME280;1637;42.020;23.992;2022-11-09T12:06:45;93255.72;;;18.22;53.67
3250;BME280;1637;42.020;23.992;2022-11-09T12:09:30;93263.38;;;18.36;54.01
3250;BME280;1637;42.020;23.992;2022-11-09T12:12:12;93260.66;;;18.48;53.69
3250;BME280;1637;42.020;23.992;2022-11-09T12:14:50;93261.00;;;18.38;52.92
3250;BME280;1637;42.020;23.992;2022-11-09T12:17:26;93262.66;;;18.23;53.63
3250;BME280;1637;42.020;23.992;2022-11-09T12:20:06;93251.41;;;18.11;53.73
3250;BME280;1637;42.020;23.992;2022-11-09T12:22:42;93249.75;;;18.14;54.90
3250;BME280;1637;42.020;23.992;2022-11-09T12:25:17;93255.97;;;18.02;54.59
3250;BME280;1637;42.020;23.992;2022-11-09T12:27:59;93260.75;;;17.60;54.81
3250;BME280;1637;42.020;23.992;2022-11-09T12:30:43;93241.03;;;17.21;56.05
3250;BME280;1637;42.020;23.992;2022-11-09T12:33:17;93251.41;;;17.23;56.77
3250;BME280;1637;42.020;23.992;2022-11-09T12:35:52;93252.31;;;17.45;55.91
3250;BME280;1637;42.020;23.992;2022-11-09T12:38:23;93263.25;;;17.41;55.64
3250;BME280;1637;42.020;23.992;2022-11-09T12:40:57;93255.09;;;17.29;55.99
3250;BME280;1637;42.020;23.992;2022-11-09T12:43:30;93256.38;;;17.11;57.11
3250;BME280;1637;42.020;23.992;2022-11-09T12:45:58;93254.09;;;17.10;57.53
3250;BME280;1637;42.020;23.992;2022-11-09T12:48:28;93258.44;;;17.20;56.84
3250;BME280;1637;42.020;23.992;2022-11-09T12:50:57;93240.59;;;17.23;56.00
3250;BME280;1637;42.020;23.992;2022-11-09T12:53:27;93260.94;;;17.14;56.84
3250;BME280;1637;42.020;23.992;2022-11-09T12:55:59;93255.84;;;17.04;57.78
3250;BME280;1637;42.020;23.992;2022-11-09T12:58:29;93261.50;;;17.22;57.74
3250;BME280;1637;42.020;23.992;2022-11-09T13:00:57;93253.34;;;17.09;57.08
3250;BME280;1637;42.020;23.992;2022-11-09T13:03:27;93256.63;;;16.88;58.41
3250;BME280;1637;42.020;23.992;2022-11-09T13:06:20;93254.03;;;16.84;58.47
3250;BME280;1637;42.020;23.992;2022-11-09T13:08:59;93260.41;;;16.78;58.38
3250;BME280;1637;42.020;23.992;2022-11-09T13:11:36;93247.56;;;16.95;57.45
3250;BME280;1637;42.020;23.992;2022-11-09T13:14:34;93249.38;;;16.85;58.06
3250;BME280;1637;42.020;23.992;2022-11-09T13:20:40;93246.72;;;16.24;59.69
3250;BME280;1637;42.020;23.992;2022-11-09T13:23:40;93247.69;;;16.17;60.45
3250;BME280;1637;42.020;23.992;2022-11-09T13:26:20;93258.97;;;16.28;60.40
3250;BME280;1637;42.020;23.992;2022-11-09T13:29:19;93259.94;;;16.05;60.98
3250;BME280;1637;42.020;23.992;2022-11-09T13:34:53;93267.97;;;15.93;61.68
3250;BME280;1637;42.020;23.992;2022-11-09T13:37:52;93262.66;;;15.73;62.40